Irene — MCQW — position and weather

sailwx.info

Track history (hours):
 
Tides and Currents Weather Stations Pressure Air Temp Water Temp Dewpoint Dewpoint Depression Visibility Wind Speed Wind Dir Waves Ship Positions

Irene

Last reported at 2017-Apr-27 11:04 UTC. Time now 2017-Apr-29 03:35 UTC.
Position N 50°40' W 001°36'.

Length 34 m.

Type: Sailing vessel. MMSI: 235085663.

Date/timePositionNaut miles runAvg speedWind from/ knotsBaromVisibWave heightAir tempDewpointWater temp
2017-Apr-27 11:04N 50°40' W 001°36'0 5.8
2017-Apr-27 11:00N 50°40' W 001°36'3 6.4
2017-Apr-27 10:30N 50°39' W 001°40'4 7.3
2017-Apr-27 10:00N 50°38' W 001°46'4 7.4
2017-Apr-27 09:30N 50°36' W 001°51'44 6.1
2017-Apr-27 02:16N 50°21' W 002°57'1 2.7
2017-Apr-27 02:00N 50°21' W 002°58'1 2.8
2017-Apr-27 01:30N 50°20' W 002°60'2 2.9
2017-Apr-27 00:46N 50°19' W 003°03'1 3.2
2017-Apr-27 00:30N 50°19' W 003°04'2 3.5
2017-Apr-27 00:00N 50°19' W 003°07'2 3.6
2017-Apr-26 23:30N 50°18' W 003°09'2 3.6
2017-Apr-26 23:00N 50°18' W 003°12'2 3.8
2017-Apr-26 22:31N 50°18' W 003°15'2 4.1
2017-Apr-26 22:00N 50°17' W 003°18'2 4.7
2017-Apr-26 21:30N 50°16' W 003°20'2 4.9
2017-Apr-26 21:00N 50°15' W 003°24'3 6.6
2017-Apr-26 20:30N 50°14' W 003°29'4 7.2
2017-Apr-26 20:00N 50°13' W 003°34'4 7.1
2017-Apr-26 19:30N 50°12' W 003°40'4 6.9
2017-Apr-26 18:55N 50°12' W 003°46'6 6.7
2017-Apr-26 17:59N 50°14' W 003°55'  
Track history (hours):
 
Tides and Currents Weather Stations Pressure Air Temp Water Temp Dewpoint Dewpoint Depression Visibility Wind Speed Wind Dir Waves Ship Positions

Irene

Last reported at 2017-Apr-27 11:04 UTC. Time now 2017-Apr-29 03:35 UTC.
Position N 50°40' W 001°36'.

Length 34 m.

Type: Sailing vessel. MMSI: 235085663.

Date/timePositionNaut miles runAvg speedWind from/ knotsBaromVisibWave heightAir tempDewpointWater temp
2017-Apr-27 11:04N 50°40' W 001°36'0 5.8
2017-Apr-27 11:00N 50°40' W 001°36'3 6.4
2017-Apr-27 10:30N 50°39' W 001°40'4 7.3
2017-Apr-27 10:00N 50°38' W 001°46'4 7.4
2017-Apr-27 09:30N 50°36' W 001°51'44 6.1
2017-Apr-27 02:16N 50°21' W 002°57'1 2.7
2017-Apr-27 02:00N 50°21' W 002°58'1 2.8
2017-Apr-27 01:30N 50°20' W 002°60'2 2.9
2017-Apr-27 00:46N 50°19' W 003°03'1 3.2
2017-Apr-27 00:30N 50°19' W 003°04'2 3.5
2017-Apr-27 00:00N 50°19' W 003°07'2 3.6
2017-Apr-26 23:30N 50°18' W 003°09'2 3.6
2017-Apr-26 23:00N 50°18' W 003°12'2 3.8
2017-Apr-26 22:31N 50°18' W 003°15'2 4.1
2017-Apr-26 22:00N 50°17' W 003°18'2 4.7
2017-Apr-26 21:30N 50°16' W 003°20'2 4.9
2017-Apr-26 21:00N 50°15' W 003°24'3 6.6
2017-Apr-26 20:30N 50°14' W 003°29'4 7.2
2017-Apr-26 20:00N 50°13' W 003°34'4 7.1
2017-Apr-26 19:30N 50°12' W 003°40'4 6.9
2017-Apr-26 18:55N 50°12' W 003°46'6 6.7
2017-Apr-26 17:59N 50°14' W 003°55'  

Dump ship's entire track history